AFL527 UWGG-UUEE
Flight info
| Callsign | AFL527 |
|---|---|
| Flight time | N/A |
| Altitude | 32000 |
| Route | LARNO T291 URIDU L158 DIMGI |
| Aircraft | A21N/M-SDE2E3FGHIRWXY/LB1 |
Departure
| Time | 2026-04-23 15:41 |
|---|---|
| Airport | Nizhny Novgorod / Strigino International Airport (UWGG) |
Arrival
| Time | N/A |
|---|---|
| Airport | Sheremetyevo International Airport (UUEE) |
| Time | Latitude | Longitude | Altitude | Speed | Heading |
|---|---|---|---|---|---|
| 2026-04-23 15:27 | 56.22274 | 43.78871 | 251 ft | 0 kts | 147° |
| 2026-04-23 15:36 | 56.22274 | 43.78872 | 251 ft | 0 kts | 146° |
| 2026-04-23 15:36 | 56.22271 | 43.78881 | 251 ft | 1 kts | 93° |
| 2026-04-23 15:36 | 56.22285 | 43.78901 | 251 ft | 5 kts | 29° |
| 2026-04-23 15:37 | 56.22343 | 43.78944 | 250 ft | 12 kts | 14° |
| 2026-04-23 15:37 | 56.22419 | 43.78967 | 250 ft | 11 kts | 1° |
| 2026-04-23 15:37 | 56.22483 | 43.78868 | 250 ft | 14 kts | 339° |
| 2026-04-23 15:37 | 56.22598 | 43.78894 | 250 ft | 18 kts | 11° |
| 2026-04-23 15:38 | 56.22739 | 43.78945 | 250 ft | 22 kts | 11° |
| 2026-04-23 15:38 | 56.22903 | 43.79002 | 251 ft | 21 kts | 12° |
| 2026-04-23 15:38 | 56.23060 | 43.79058 | 252 ft | 24 kts | 11° |
| 2026-04-23 15:38 | 56.23233 | 43.79128 | 253 ft | 27 kts | 13° |
| 2026-04-23 15:39 | 56.23425 | 43.79207 | 254 ft | 28 kts | 12° |
| 2026-04-23 15:39 | 56.23618 | 43.79234 | 252 ft | 24 kts | 1° |
| 2026-04-23 15:39 | 56.23763 | 43.79244 | 251 ft | 20 kts | 2° |
| 2026-04-23 15:39 | 56.23904 | 43.79256 | 251 ft | 16 kts | 3° |
| 2026-04-23 15:40 | 56.24017 | 43.79251 | 250 ft | 15 kts | 346° |
| 2026-04-23 15:40 | 56.24101 | 43.79124 | 249 ft | 16 kts | 301° |
| 2026-04-23 15:40 | 56.24079 | 43.78980 | 247 ft | 12 kts | 202° |
| 2026-04-23 15:40 | 56.24052 | 43.78966 | 247 ft | 0 kts | 193° |
| 2026-04-23 15:41 | 56.23963 | 43.78932 | 247 ft | 49 kts | 192° |
| 2026-04-23 15:41 | 56.23347 | 43.78702 | 248 ft | 129 kts | 191° |
| 2026-04-23 15:41 | 56.22268 | 43.78313 | 415 ft | 179 kts | 192° |
| 2026-04-23 15:41 | 56.20962 | 43.77848 | 1008 ft | 205 kts | 192° |
| 2026-04-23 15:42 | 56.19516 | 43.77286 | 1916 ft | 224 kts | 196° |
| 2026-04-23 15:42 | 56.18143 | 43.76390 | 3137 ft | 210 kts | 204° |
| 2026-04-23 15:42 | 56.16800 | 43.75207 | 3773 ft | 223 kts | 207° |
| 2026-04-23 15:42 | 56.15384 | 43.73909 | 4271 ft | 240 kts | 206° |
| 2026-04-23 15:43 | 56.13874 | 43.72532 | 5006 ft | 248 kts | 207° |
| 2026-04-23 15:43 | 56.12675 | 43.71444 | 5683 ft | 250 kts | 207° |
| 2026-04-23 15:43 | 56.11146 | 43.70067 | 6489 ft | 253 kts | 207° |
| 2026-04-23 15:43 | 56.09567 | 43.68648 | 7280 ft | 256 kts | 207° |
| 2026-04-23 15:44 | 56.07977 | 43.67225 | 8051 ft | 260 kts | 207° |
| 2026-04-23 15:44 | 56.06361 | 43.65778 | 8796 ft | 263 kts | 207° |
| 2026-04-23 15:44 | 56.04711 | 43.64308 | 9538 ft | 265 kts | 207° |
| 2026-04-23 15:44 | 56.03080 | 43.62738 | 10294 ft | 268 kts | 212° |
| 2026-04-23 15:45 | 56.01733 | 43.60968 | 10671 ft | 279 kts | 220° |
| 2026-04-23 15:45 | 56.00573 | 43.58922 | 10914 ft | 292 kts | 226° |
| 2026-04-23 15:45 | 55.99593 | 43.56949 | 11113 ft | 302 kts | 227° |
| 2026-04-23 15:45 | 55.98193 | 43.54063 | 11376 ft | 316 kts | 228° |
| 2026-04-23 15:46 | 55.97174 | 43.51954 | 11656 ft | 322 kts | 228° |
| 2026-04-23 15:46 | 55.96081 | 43.49697 | 12066 ft | 324 kts | 228° |
| 2026-04-23 15:46 | 55.94905 | 43.47274 | 12529 ft | 326 kts | 228° |
| 2026-04-23 15:46 | 55.93419 | 43.44225 | 13080 ft | 329 kts | 228° |
| 2026-04-23 15:47 | 55.91907 | 43.41129 | 13624 ft | 332 kts | 228° |
| 2026-04-23 15:47 | 55.90404 | 43.38061 | 14149 ft | 335 kts | 228° |
| 2026-04-23 15:47 | 55.88857 | 43.34920 | 14661 ft | 339 kts | 227° |
| 2026-04-23 15:47 | 55.87306 | 43.31776 | 15185 ft | 341 kts | 227° |
| 2026-04-23 15:48 | 55.85723 | 43.28565 | 15730 ft | 343 kts | 227° |
| 2026-04-23 15:48 | 55.84166 | 43.25409 | 16231 ft | 346 kts | 227° |
| 2026-04-23 15:48 | 55.82572 | 43.22179 | 16724 ft | 349 kts | 227° |
| 2026-04-23 15:48 | 55.81021 | 43.18846 | 17193 ft | 352 kts | 235° |
| 2026-04-23 15:49 | 55.80032 | 43.14862 | 17634 ft | 359 kts | 254° |
| 2026-04-23 15:49 | 55.79830 | 43.10453 | 18096 ft | 365 kts | 271° |
| 2026-04-23 15:49 | 55.80064 | 43.06019 | 18567 ft | 367 kts | 273° |
| 2026-04-23 15:49 | 55.80336 | 43.01461 | 18993 ft | 371 kts | 274° |
| 2026-04-23 15:50 | 55.80606 | 42.96952 | 19440 ft | 373 kts | 273° |
| 2026-04-23 15:50 | 55.80877 | 42.92371 | 19921 ft | 374 kts | 273° |
| 2026-04-23 15:50 | 55.81143 | 42.87759 | 20371 ft | 376 kts | 273° |
| 2026-04-23 15:50 | 55.81405 | 42.83143 | 20798 ft | 378 kts | 272° |
| 2026-04-23 15:51 | 55.81662 | 42.78531 | 21223 ft | 380 kts | 272° |
| 2026-04-23 15:51 | 55.81922 | 42.73847 | 21653 ft | 381 kts | 272° |
| 2026-04-23 15:51 | 55.82179 | 42.69162 | 22052 ft | 383 kts | 272° |
| 2026-04-23 15:51 | 55.82432 | 42.64507 | 22465 ft | 385 kts | 272° |
| 2026-04-23 15:52 | 55.82689 | 42.59751 | 22868 ft | 387 kts | 272° |
| 2026-04-23 15:52 | 55.82942 | 42.55013 | 23254 ft | 389 kts | 272° |
| 2026-04-23 15:52 | 55.83195 | 42.50249 | 23638 ft | 390 kts | 272° |
| 2026-04-23 15:52 | 55.83449 | 42.45417 | 24018 ft | 392 kts | 271° |
| 2026-04-23 15:53 | 55.83702 | 42.40579 | 24368 ft | 394 kts | 271° |
| 2026-04-23 15:53 | 55.83955 | 42.35733 | 24715 ft | 396 kts | 271° |
| 2026-04-23 15:53 | 55.84202 | 42.30913 | 25070 ft | 398 kts | 271° |
| 2026-04-23 15:53 | 55.84452 | 42.26022 | 25399 ft | 400 kts | 270° |
| 2026-04-23 15:54 | 55.84700 | 42.21117 | 25728 ft | 402 kts | 270° |
| 2026-04-23 15:54 | 55.84950 | 42.16162 | 26054 ft | 403 kts | 270° |
| 2026-04-23 15:54 | 55.85196 | 42.11220 | 26336 ft | 406 kts | 270° |
| 2026-04-23 15:54 | 55.85444 | 42.06210 | 26621 ft | 408 kts | 270° |
| 2026-04-23 15:55 | 55.85691 | 42.01164 | 26912 ft | 409 kts | 270° |
| 2026-04-23 15:55 | 55.85935 | 41.96151 | 27180 ft | 411 kts | 270° |
| 2026-04-23 15:55 | 55.86177 | 41.91112 | 27455 ft | 413 kts | 270° |
| 2026-04-23 15:55 | 55.86422 | 41.85988 | 27717 ft | 415 kts | 270° |
| 2026-04-23 15:56 | 55.86615 | 41.80908 | 27960 ft | 415 kts | 268° |
| 2026-04-23 15:56 | 55.86657 | 41.75769 | 28200 ft | 415 kts | 264° |
| 2026-04-23 15:56 | 55.86552 | 41.70699 | 28435 ft | 416 kts | 263° |
| 2026-04-23 15:56 | 55.86404 | 41.65550 | 28663 ft | 418 kts | 263° |
| 2026-04-23 15:57 | 55.86249 | 41.60404 | 28896 ft | 420 kts | 263° |
| 2026-04-23 15:57 | 55.86091 | 41.55217 | 29111 ft | 421 kts | 263° |
| 2026-04-23 15:57 | 55.85931 | 41.50019 | 29349 ft | 422 kts | 263° |
| 2026-04-23 15:57 | 55.85771 | 41.44859 | 29620 ft | 421 kts | 262° |
| 2026-04-23 15:58 | 55.85607 | 41.39679 | 29845 ft | 422 kts | 262° |
| 2026-04-23 15:58 | 55.85442 | 41.34479 | 30034 ft | 423 kts | 262° |
| 2026-04-23 15:58 | 55.85273 | 41.29258 | 30220 ft | 424 kts | 262° |
| 2026-04-23 15:58 | 55.85102 | 41.24004 | 30404 ft | 425 kts | 262° |
| 2026-04-23 15:59 | 55.84930 | 41.18811 | 30585 ft | 426 kts | 262° |
| 2026-04-23 15:59 | 55.84754 | 41.13570 | 30765 ft | 427 kts | 262° |
| 2026-04-23 15:59 | 55.84576 | 41.08320 | 30949 ft | 428 kts | 262° |
| 2026-04-23 15:59 | 55.84394 | 41.03056 | 31071 ft | 429 kts | 262° |
| 2026-04-23 16:00 | 55.84208 | 40.97763 | 31167 ft | 431 kts | 262° |
| 2026-04-23 16:00 | 55.83825 | 40.87070 | 31311 ft | 435 kts | 262° |
| 2026-04-23 16:01 | 55.83436 | 40.76356 | 31328 ft | 437 kts | 263° |
| 2026-04-23 16:01 | 55.83036 | 40.65646 | 31319 ft | 438 kts | 263° |
| 2026-04-23 16:02 | 55.82618 | 40.54845 | 31316 ft | 439 kts | 263° |
| 2026-04-23 16:02 | 55.82179 | 40.44015 | 31313 ft | 440 kts | 263° |
| 2026-04-23 16:03 | 55.81735 | 40.33266 | 31329 ft | 441 kts | 262° |